createdAt,value
2023-12-10T00:02:02.580Z,17.73
2023-12-10T00:04:29.590Z,17.57
2023-12-10T00:06:53.909Z,14.73
2023-12-10T00:09:17.663Z,15.83
2023-12-10T00:11:41.486Z,17.47
2023-12-10T00:14:05.321Z,19.30
2023-12-10T00:16:30.535Z,15.67
2023-12-10T00:18:54.328Z,15.20
2023-12-10T00:21:18.196Z,13.90
2023-12-10T00:23:41.982Z,19.63
2023-12-10T00:26:06.267Z,14.87
2023-12-10T00:28:29.945Z,13.50
2023-12-10T00:30:53.899Z,15.93
2023-12-10T00:33:19.156Z,16.87
2023-12-10T00:35:43.068Z,19.73
2023-12-10T00:38:06.922Z,15.63
2023-12-10T00:40:30.695Z,16.03
2023-12-10T00:42:54.475Z,11.73
2023-12-10T00:45:18.298Z,16.60
2023-12-10T00:47:42.144Z,16.17
2023-12-10T00:50:09.431Z,17.33
2023-12-10T00:52:33.155Z,17.00
2023-12-10T00:54:56.918Z,15.03
2023-12-10T00:57:20.680Z,16.03
2023-12-10T00:59:44.616Z,15.23
2023-12-10T01:02:08.370Z,16.07
2023-12-10T01:04:31.186Z,18.20
2023-12-10T01:06:56.502Z,17.27
2023-12-10T01:09:20.281Z,17.60
2023-12-10T01:11:44.358Z,15.20
2023-12-10T01:14:08.194Z,15.43
2023-12-10T01:16:31.932Z,14.77
2023-12-10T01:18:55.781Z,18.83
2023-12-10T01:21:19.521Z,17.03
2023-12-10T01:23:44.699Z,12.90
2023-12-10T01:26:11.277Z,11.73
2023-12-10T01:28:35.541Z,13.27
2023-12-10T01:30:59.277Z,15.23
2023-12-10T01:33:23.253Z,14.70
2023-12-10T01:35:47.234Z,13.67
2023-12-10T01:38:11.928Z,11.77
2023-12-10T01:40:37.048Z,16.33
2023-12-10T01:43:00.796Z,17.67
2023-12-10T01:45:24.511Z,13.07
2023-12-10T01:47:51.691Z,13.93
2023-12-10T01:50:16.902Z,14.40
2023-12-10T01:52:42.460Z,14.57
2023-12-10T01:55:09.058Z,11.57
2023-12-10T01:57:35.735Z,13.80
2023-12-10T02:00:00.791Z,13.10
2023-12-10T02:02:25.338Z,11.97
2023-12-10T02:04:49.444Z,13.83
2023-12-10T02:07:13.326Z,11.73
2023-12-10T02:09:37.721Z,14.20
2023-12-10T02:12:02.470Z,12.70
2023-12-10T02:14:27.574Z,13.77
2023-12-10T02:16:51.352Z,10.77
2023-12-10T02:19:15.247Z,13.10
2023-12-10T02:21:44.356Z,12.63
2023-12-10T02:24:12.561Z,12.53
2023-12-10T02:26:38.526Z,11.30
2023-12-10T02:29:02.660Z,12.53
2023-12-10T02:31:27.061Z,10.17
2023-12-10T02:33:50.892Z,10.27
2023-12-10T02:36:14.785Z,11.73
2023-12-10T02:38:38.556Z,11.37
2023-12-10T02:41:02.362Z,9.20
2023-12-10T02:43:27.450Z,10.20
2023-12-10T02:45:51.259Z,10.43
2023-12-10T02:48:15.387Z,11.73
2023-12-10T02:50:39.294Z,11.67
2023-12-10T02:53:03.106Z,11.67
2023-12-10T02:55:27.028Z,10.10
2023-12-10T02:57:50.995Z,12.33
2023-12-10T03:00:17.663Z,9.80
2023-12-10T03:02:41.595Z,10.90
2023-12-10T03:05:06.263Z,10.83
2023-12-10T03:07:30.155Z,9.63
2023-12-10T03:09:54.429Z,11.10
2023-12-10T03:12:18.407Z,8.93
2023-12-10T03:14:42.728Z,12.43
2023-12-10T03:17:07.937Z,11.50
2023-12-10T03:19:31.929Z,10.27
2023-12-10T03:21:55.715Z,10.73
2023-12-10T03:24:19.680Z,10.30
2023-12-10T03:26:43.528Z,9.47
2023-12-10T03:29:07.368Z,12.60
2023-12-10T03:31:31.120Z,11.03
2023-12-10T03:33:56.366Z,11.97
2023-12-10T03:36:20.831Z,12.73
2023-12-10T03:38:44.746Z,10.83
2023-12-10T03:41:08.597Z,12.70
2023-12-10T03:43:32.420Z,12.43
2023-12-10T03:45:56.232Z,11.90
2023-12-10T03:48:20.123Z,11.47
2023-12-10T03:50:45.316Z,10.93
2023-12-10T03:53:09.169Z,13.90
2023-12-10T03:55:32.931Z,12.17
2023-12-10T03:57:56.871Z,9.77
2023-12-10T04:00:21.692Z,11.53
2023-12-10T04:02:45.534Z,13.03
2023-12-10T04:05:13.550Z,12.07
2023-12-10T04:07:39.052Z,12.27
2023-12-10T04:10:03.396Z,10.27
2023-12-10T04:12:27.348Z,12.97
2023-12-10T04:14:51.343Z,13.50
2023-12-10T04:17:15.231Z,13.37
2023-12-10T04:19:39.316Z,12.60
2023-12-10T04:22:03.159Z,12.10
2023-12-10T04:24:28.518Z,13.03
2023-12-10T04:26:52.577Z,14.40
2023-12-10T04:29:16.399Z,12.27
2023-12-10T04:31:40.467Z,12.30
2023-12-10T04:34:04.356Z,12.63
2023-12-10T04:36:28.243Z,11.57
2023-12-10T04:38:51.958Z,13.93
2023-12-10T04:41:17.197Z,12.93
2023-12-10T04:43:41.598Z,12.80
2023-12-10T04:46:05.988Z,12.30
2023-12-10T04:48:29.967Z,10.13
2023-12-10T04:50:53.961Z,14.87
2023-12-10T04:53:18.192Z,11.50
2023-12-10T04:55:42.116Z,14.00
2023-12-10T04:58:07.225Z,13.03
2023-12-10T05:00:31.166Z,11.80
2023-12-10T05:02:55.155Z,10.03
2023-12-10T05:05:19.483Z,12.27
2023-12-10T05:07:43.336Z,12.27
2023-12-10T05:10:08.448Z,12.80
2023-12-10T05:12:32.487Z,12.90
2023-12-10T05:14:58.315Z,12.30
2023-12-10T05:17:22.031Z,15.93
2023-12-10T05:19:46.455Z,12.53
2023-12-10T05:22:10.278Z,13.13
2023-12-10T05:24:34.157Z,12.60
2023-12-10T05:26:57.901Z,13.70
2023-12-10T05:29:21.740Z,14.00
2023-12-10T05:31:46.820Z,13.03
2023-12-10T05:34:10.932Z,14.43
2023-12-10T05:36:34.736Z,11.97
2023-12-10T05:38:58.498Z,13.50
2023-12-10T05:41:22.196Z,13.63
2023-12-10T05:43:45.935Z,13.10
2023-12-10T05:46:10.555Z,12.67
2023-12-10T05:48:36.025Z,15.07
2023-12-10T05:51:00.011Z,12.40
2023-12-10T05:53:23.853Z,15.57
2023-12-10T05:55:47.703Z,14.40
2023-12-10T05:58:11.493Z,15.53
2023-12-10T06:00:35.333Z,15.90
2023-12-10T06:02:59.193Z,15.47
2023-12-10T06:05:24.342Z,14.67
2023-12-10T06:07:48.154Z,14.60
2023-12-10T06:10:13.735Z,16.17
2023-12-10T06:12:37.711Z,16.53
2023-12-10T06:15:01.466Z,17.40
2023-12-10T06:17:25.266Z,14.23
2023-12-10T06:19:49.003Z,16.73
2023-12-10T06:22:14.338Z,18.03
2023-12-10T06:24:38.082Z,18.37
2023-12-10T06:27:01.836Z,16.60
2023-12-10T06:29:25.687Z,16.47
2023-12-10T06:31:49.443Z,17.40
2023-12-10T06:34:13.331Z,17.70
2023-12-10T06:36:37.631Z,16.40
2023-12-10T06:39:02.730Z,14.37
2023-12-10T06:41:26.512Z,17.33
2023-12-10T06:43:50.199Z,15.37
2023-12-10T06:46:14.494Z,16.20
2023-12-10T06:48:38.661Z,16.87
2023-12-10T06:51:04.602Z,17.47
2023-12-10T06:53:28.312Z,20.03
2023-12-10T06:55:53.502Z,15.53
2023-12-10T06:58:17.264Z,16.67
2023-12-10T07:00:41.191Z,17.57
2023-12-10T07:03:05.066Z,19.13
2023-12-10T07:05:28.892Z,18.73
2023-12-10T07:07:52.611Z,20.30
2023-12-10T07:10:16.442Z,20.00
2023-12-10T07:12:41.666Z,15.00
2023-12-10T07:15:06.778Z,14.57
2023-12-10T07:17:30.598Z,17.70
2023-12-10T07:19:54.517Z,14.87
2023-12-10T07:22:18.295Z,17.03
2023-12-10T07:24:42.092Z,14.90
2023-12-10T07:27:06.357Z,16.53
2023-12-10T07:29:31.517Z,19.17
2023-12-10T07:31:55.239Z,19.73
2023-12-10T07:34:19.301Z,15.03
2023-12-10T07:36:43.137Z,16.40
2023-12-10T07:39:08.898Z,23.20
2023-12-10T07:41:32.739Z,17.80
2023-12-10T07:43:56.790Z,17.23
2023-12-10T07:46:21.879Z,17.90
2023-12-10T07:48:45.828Z,14.67
2023-12-10T07:51:09.675Z,15.47
2023-12-10T07:53:33.472Z,16.40
2023-12-10T07:55:57.222Z,23.07
2023-12-10T07:58:20.952Z,19.30
2023-12-10T08:00:48.516Z,20.23
2023-12-10T08:03:13.972Z,20.53
2023-12-10T08:05:37.771Z,19.10
2023-12-10T08:08:04.582Z,20.43
2023-12-10T08:10:28.513Z,22.37
2023-12-10T08:12:52.337Z,18.67
2023-12-10T08:15:16.176Z,26.60
2023-12-10T08:17:40.931Z,20.37
2023-12-10T08:20:07.372Z,21.57
2023-12-10T08:22:31.596Z,18.90
2023-12-10T08:24:55.818Z,21.53
2023-12-10T08:27:19.743Z,17.13
2023-12-10T08:29:44.736Z,15.73
2023-12-10T08:32:08.991Z,26.77
2023-12-10T08:34:32.814Z,17.90
2023-12-10T08:36:58.146Z,16.93
2023-12-10T08:39:21.964Z,24.40
2023-12-10T08:41:45.770Z,22.27
2023-12-10T08:44:10.298Z,15.97
2023-12-10T08:46:34.102Z,22.20
2023-12-10T08:48:58.042Z,12.33
2023-12-10T08:51:20.932Z,16.63
2023-12-10T08:53:46.086Z,11.73
2023-12-10T08:56:10.742Z,18.40
2023-12-10T08:58:34.482Z,10.80
2023-12-10T09:00:58.404Z,15.20
2023-12-10T09:03:22.212Z,12.30
2023-12-10T09:05:46.183Z,19.35
2023-12-10T09:08:09.925Z,13.25
2023-12-10T09:10:35.257Z,15.15
2023-12-10T09:12:59.085Z,9.77
2023-12-10T09:15:22.919Z,22.48
2023-12-10T09:17:46.917Z,16.85
2023-12-10T09:20:11.494Z,18.05
2023-12-10T09:22:35.223Z,9.45
2023-12-10T09:24:59.049Z,13.80
2023-12-10T09:27:24.862Z,13.02
2023-12-10T09:29:48.695Z,13.05
2023-12-10T09:32:13.908Z,11.95
2023-12-10T09:34:39.387Z,13.60
2023-12-10T09:37:03.658Z,13.07
2023-12-10T09:39:27.894Z,17.58
2023-12-10T09:41:51.600Z,15.50
2023-12-10T09:44:16.760Z,10.38
2023-12-10T09:46:41.566Z,17.77
2023-12-10T09:49:06.104Z,15.65
2023-12-10T09:51:30.095Z,17.10
2023-12-10T09:53:53.930Z,15.80
2023-12-10T09:56:17.622Z,25.48
2023-12-10T09:58:41.401Z,19.42
2023-12-10T10:01:09.341Z,10.20
2023-12-10T10:03:37.196Z,13.95
2023-12-10T10:06:01.424Z,15.13
2023-12-10T10:08:25.302Z,14.98
2023-12-10T10:10:49.069Z,16.17
2023-12-10T10:13:13.093Z,15.63
2023-12-10T10:15:37.088Z,9.60
2023-12-10T10:18:02.468Z,10.07
2023-12-10T10:20:27.481Z,12.73
2023-12-10T10:22:51.935Z,10.32
2023-12-10T10:25:15.757Z,12.25
2023-12-10T10:27:40.034Z,15.30
2023-12-10T10:30:05.161Z,13.98
2023-12-10T10:32:31.297Z,14.98
2023-12-10T10:34:57.750Z,16.80
2023-12-10T10:37:21.596Z,9.82
2023-12-10T10:39:45.942Z,21.92
2023-12-10T10:42:12.027Z,11.40
2023-12-10T10:44:35.725Z,12.00
2023-12-10T10:47:00.544Z,21.33
2023-12-10T10:49:24.722Z,14.90
2023-12-10T10:51:50.199Z,15.55
2023-12-10T10:54:14.304Z,15.27
2023-12-10T10:56:39.099Z,18.08
2023-12-10T10:59:02.959Z,11.73
2023-12-10T11:01:44.406Z,11.13
2023-12-10T11:04:09.049Z,20.90
2023-12-10T11:06:32.996Z,17.77
2023-12-10T11:09:02.258Z,14.85
2023-12-10T11:11:30.809Z,7.63
2023-12-10T11:13:56.782Z,12.18
2023-12-10T11:16:21.179Z,12.65
2023-12-10T11:18:55.913Z,16.15
2023-12-10T11:21:19.002Z,14.10
2023-12-10T11:23:42.701Z,15.70
2023-12-10T11:26:08.918Z,14.82
2023-12-10T11:28:33.702Z,15.73
2023-12-10T11:30:58.592Z,10.98
2023-12-10T11:33:22.496Z,12.73
2023-12-10T11:36:17.428Z,11.05
2023-12-10T11:38:30.490Z,18.33
2023-12-10T11:40:54.295Z,13.90
2023-12-10T11:43:19.434Z,10.88
2023-12-10T11:45:43.566Z,15.38
2023-12-10T11:48:08.164Z,15.73
2023-12-10T11:50:35.328Z,13.90
2023-12-10T11:52:59.504Z,14.65
2023-12-10T11:55:24.074Z,13.02
2023-12-10T11:57:48.046Z,11.07
2023-12-10T12:00:15.556Z,13.27
2023-12-10T12:02:44.104Z,19.23
2023-12-10T12:05:10.708Z,24.73
2023-12-10T12:07:34.747Z,7.30
2023-12-10T12:09:58.773Z,18.05
2023-12-10T12:12:24.397Z,16.55
2023-12-10T12:14:48.431Z,15.23
2023-12-10T12:17:17.478Z,23.63
2023-12-10T12:19:42.262Z,14.27
2023-12-10T12:22:06.598Z,10.13
2023-12-10T12:24:30.345Z,13.45
2023-12-10T12:26:54.297Z,10.50
2023-12-10T12:29:18.126Z,17.05
2023-12-10T12:31:57.512Z,14.10
2023-12-10T12:34:27.936Z,11.02
2023-12-10T12:36:51.741Z,10.02
2023-12-10T12:39:15.701Z,12.38
2023-12-10T12:41:39.394Z,15.60
2023-12-10T12:44:03.189Z,11.50
2023-12-10T12:46:26.968Z,7.45
2023-12-10T12:48:50.874Z,14.98
2023-12-10T12:51:16.112Z,10.60
2023-12-10T12:54:10.675Z,9.57
2023-12-10T12:56:23.629Z,8.00
2023-12-10T12:58:49.260Z,13.40
2023-12-10T13:01:14.638Z,8.05
2023-12-10T13:03:38.619Z,8.98
2023-12-10T13:06:02.439Z,10.00
2023-12-10T13:08:27.576Z,5.10
2023-12-10T13:10:51.333Z,8.05
2023-12-10T13:13:15.164Z,8.32
2023-12-10T13:15:38.969Z,9.07
2023-12-10T13:18:03.094Z,9.50
2023-12-10T13:20:26.982Z,8.38
2023-12-10T13:22:53.704Z,8.85
2023-12-10T13:25:18.978Z,8.00
2023-12-10T13:27:42.737Z,9.18
2023-12-10T13:30:07.924Z,6.90
2023-12-10T13:32:34.080Z,7.65
2023-12-10T13:34:58.363Z,17.40
2023-12-10T13:37:22.616Z,9.02
2023-12-10T13:39:46.435Z,10.20
2023-12-10T13:42:11.563Z,8.13
2023-12-10T13:44:35.516Z,6.43
2023-12-10T13:46:59.414Z,6.85
2023-12-10T13:49:23.297Z,5.85
2023-12-10T13:51:47.545Z,7.55
2023-12-10T13:54:11.380Z,3.85
2023-12-10T13:56:35.710Z,9.63
2023-12-10T13:59:01.016Z,7.95
2023-12-10T14:01:25.304Z,9.85
2023-12-10T14:03:50.429Z,8.00
2023-12-10T14:06:14.388Z,8.75
2023-12-10T14:08:38.153Z,4.85
2023-12-10T14:11:01.979Z,3.88
2023-12-10T14:13:25.731Z,6.65
2023-12-10T14:15:50.943Z,4.63
2023-12-10T14:18:14.830Z,6.03
2023-12-10T14:20:38.590Z,5.03
2023-12-10T14:23:02.514Z,3.92
2023-12-10T14:25:26.227Z,4.00
2023-12-10T14:27:50.069Z,4.18
2023-12-10T14:30:14.857Z,2.83
2023-12-10T14:32:40.032Z,2.60
2023-12-10T14:35:03.835Z,8.13
2023-12-10T14:37:27.720Z,3.25
2023-12-10T14:39:51.921Z,6.78
2023-12-10T14:42:16.245Z,5.28
2023-12-10T14:44:39.956Z,3.42
2023-12-10T14:47:03.896Z,4.47
2023-12-10T14:49:30.230Z,4.82
2023-12-10T14:51:54.114Z,4.55
2023-12-10T14:54:17.899Z,12.05
2023-12-10T14:56:41.658Z,8.15
2023-12-10T14:59:05.846Z,4.47
2023-12-10T15:01:31.355Z,6.72
2023-12-10T15:03:55.313Z,3.55
2023-12-10T15:06:20.672Z,4.95
2023-12-10T15:08:44.405Z,3.47
2023-12-10T15:11:08.906Z,8.25
2023-12-10T15:13:32.604Z,7.63
2023-12-10T15:15:56.597Z,5.82
2023-12-10T15:18:20.759Z,5.07
2023-12-10T15:20:44.859Z,4.63
2023-12-10T15:23:10.098Z,6.00
2023-12-10T15:25:34.172Z,8.98
2023-12-10T15:28:00.139Z,10.20
2023-12-10T15:30:24.040Z,11.73
2023-12-10T15:32:47.909Z,9.20
2023-12-10T15:35:11.967Z,4.38
2023-12-10T15:37:36.187Z,5.13
2023-12-10T15:40:01.607Z,8.13
2023-12-10T15:42:27.688Z,7.93
2023-12-10T15:44:52.686Z,6.03
2023-12-10T15:47:18.041Z,7.07
2023-12-10T15:49:41.922Z,3.47
2023-12-10T15:52:06.674Z,4.00
2023-12-10T15:54:32.836Z,6.07
2023-12-10T15:56:58.196Z,8.63
2023-12-10T15:59:22.261Z,8.38
2023-12-10T16:01:46.106Z,8.55
2023-12-10T16:04:10.164Z,7.35
2023-12-10T16:06:34.318Z,14.60
2023-12-10T16:09:00.794Z,7.38
2023-12-10T16:11:24.947Z,8.25
2023-12-10T16:13:50.155Z,5.43
2023-12-10T16:16:13.843Z,11.75
2023-12-10T16:18:37.996Z,8.55
2023-12-10T16:21:03.899Z,9.07
2023-12-10T16:23:29.205Z,13.15
2023-12-10T16:25:52.924Z,11.57
2023-12-10T16:28:16.956Z,7.68
2023-12-10T16:30:42.654Z,18.02
2023-12-10T16:33:06.613Z,9.75
2023-12-10T16:35:30.387Z,13.18
2023-12-10T16:37:54.138Z,15.18
2023-12-10T16:40:18.221Z,14.45
2023-12-10T16:42:42.050Z,10.10
2023-12-10T16:45:06.477Z,10.32
2023-12-10T16:47:32.307Z,8.13
2023-12-10T16:49:56.339Z,9.50
2023-12-10T16:52:20.302Z,8.18
2023-12-10T16:54:44.197Z,13.30
2023-12-10T16:57:08.221Z,8.38
2023-12-10T16:59:32.512Z,5.80
2023-12-10T17:01:56.325Z,4.88
2023-12-10T17:04:21.644Z,5.40
2023-12-10T17:06:46.506Z,9.52
2023-12-10T17:09:10.281Z,3.75
2023-12-10T17:11:34.012Z,6.20
2023-12-10T17:13:58.073Z,9.13
2023-12-10T17:16:21.945Z,4.07
2023-12-10T17:18:45.741Z,6.53
2023-12-10T17:21:11.360Z,4.35
2023-12-10T17:23:35.076Z,7.75
2023-12-10T17:25:58.837Z,10.27
2023-12-10T17:28:22.584Z,3.30
2023-12-10T17:30:46.485Z,7.00
2023-12-10T17:33:10.296Z,7.07
2023-12-10T17:35:34.252Z,4.63
2023-12-10T17:37:59.358Z,6.03
2023-12-10T17:40:23.148Z,4.20
2023-12-10T17:42:46.977Z,9.02
2023-12-10T17:45:12.150Z,5.15
2023-12-10T17:47:35.951Z,11.10
2023-12-10T17:50:00.023Z,11.68
2023-12-10T17:52:24.140Z,8.35
2023-12-10T17:54:50.036Z,8.65
2023-12-10T17:57:13.846Z,8.77
2023-12-10T17:59:37.632Z,7.85
2023-12-10T18:02:01.413Z,14.45
2023-12-10T18:04:25.252Z,7.53
2023-12-10T18:06:49.052Z,10.52
2023-12-10T18:09:13.193Z,12.25
2023-12-10T18:11:40.338Z,11.80
2023-12-10T18:14:04.142Z,8.00
2023-12-10T18:16:28.196Z,9.65
2023-12-10T18:18:52.088Z,16.30
2023-12-10T18:21:15.998Z,10.02
2023-12-10T18:23:41.815Z,11.68
2023-12-10T18:26:08.030Z,12.85
2023-12-10T18:28:34.658Z,14.27
2023-12-10T18:31:00.130Z,10.75
2023-12-10T18:33:24.319Z,10.93
2023-12-10T18:35:48.104Z,11.65
2023-12-10T18:38:11.839Z,11.80
2023-12-10T18:40:36.024Z,9.45
2023-12-10T18:43:03.424Z,8.95
2023-12-10T18:45:28.967Z,9.15
2023-12-10T18:47:53.118Z,9.40
2023-12-10T18:50:16.969Z,6.38
2023-12-10T18:52:40.740Z,10.68
2023-12-10T18:55:04.535Z,5.22
2023-12-10T18:57:30.259Z,6.18
2023-12-10T18:59:54.126Z,12.63
2023-12-10T19:02:19.756Z,9.95
2023-12-10T19:04:45.278Z,8.00
2023-12-10T19:07:09.614Z,6.80
2023-12-10T19:09:35.808Z,9.07
2023-12-10T19:12:00.793Z,7.15
2023-12-10T19:14:24.527Z,9.38
2023-12-10T19:16:49.480Z,8.10
2023-12-10T19:19:14.792Z,14.68
2023-12-10T19:21:38.955Z,8.43
2023-12-10T19:24:06.305Z,9.02
2023-12-10T19:26:30.097Z,8.07
2023-12-10T19:28:53.841Z,7.90
2023-12-10T19:31:17.623Z,12.88
2023-12-10T19:33:41.370Z,9.63
2023-12-10T19:36:07.597Z,13.18
2023-12-10T19:38:31.308Z,12.18
2023-12-10T19:40:56.951Z,8.27
2023-12-10T19:43:20.735Z,8.52
2023-12-10T19:45:44.667Z,11.27
2023-12-10T19:48:08.499Z,8.32
2023-12-10T19:50:32.346Z,10.88
2023-12-10T19:52:57.437Z,8.73
2023-12-10T19:55:22.723Z,13.75
2023-12-10T19:57:47.487Z,8.30
2023-12-10T20:00:12.329Z,14.43
2023-12-10T20:02:36.064Z,11.68
2023-12-10T20:04:59.900Z,12.95
2023-12-10T20:07:23.868Z,9.98
2023-12-10T20:09:49.138Z,12.38
2023-12-10T20:12:13.104Z,13.13
2023-12-10T20:14:36.942Z,14.38
2023-12-10T20:17:00.667Z,10.43
2023-12-10T20:19:27.179Z,14.32
2023-12-10T20:21:51.256Z,10.57
2023-12-10T20:24:27.068Z,10.77
2023-12-10T20:27:00.199Z,12.88
2023-12-10T20:29:24.216Z,11.60
2023-12-10T20:31:48.046Z,11.38
2023-12-10T20:34:23.602Z,11.43
2023-12-10T20:36:53.770Z,11.13
2023-12-10T20:39:17.547Z,19.58
2023-12-10T20:41:41.389Z,13.32
2023-12-10T20:44:06.768Z,11.75
2023-12-10T20:46:30.785Z,13.00
2023-12-10T20:48:54.711Z,13.80
2023-12-10T20:51:18.731Z,13.30
2023-12-10T20:53:42.480Z,14.23
2023-12-10T20:56:06.641Z,20.23
2023-12-10T20:58:30.351Z,12.50
2023-12-10T21:00:55.657Z,13.18
2023-12-10T21:03:20.744Z,20.60
2023-12-10T21:05:45.572Z,14.38
2023-12-10T21:08:09.361Z,14.35
2023-12-10T21:10:33.117Z,16.80
2023-12-10T21:12:57.547Z,11.25
2023-12-10T21:15:21.650Z,19.52
2023-12-10T21:17:47.270Z,15.55
2023-12-10T21:20:12.036Z,21.58
2023-12-10T21:22:35.725Z,12.80
2023-12-10T21:24:59.537Z,15.80
2023-12-10T21:27:23.333Z,15.80
2023-12-10T21:29:47.155Z,11.75
2023-12-10T21:32:11.478Z,19.85
2023-12-10T21:34:36.705Z,10.00
2023-12-10T21:37:00.972Z,14.18
2023-12-10T21:39:24.882Z,14.40
2023-12-10T21:41:48.643Z,13.07
2023-12-10T21:44:13.138Z,12.82
2023-12-10T21:46:39.164Z,15.90
2023-12-10T21:49:03.975Z,13.68
2023-12-10T21:51:29.332Z,15.60
2023-12-10T21:53:53.684Z,16.98
2023-12-10T21:56:17.421Z,20.10
2023-12-10T21:58:43.938Z,12.65
2023-12-10T22:01:08.014Z,16.00
2023-12-10T22:03:33.064Z,13.05
2023-12-10T22:05:58.317Z,11.93
2023-12-10T22:08:24.654Z,19.50
2023-12-10T22:10:50.710Z,11.80
2023-12-10T22:13:14.629Z,16.05
2023-12-10T22:15:38.421Z,15.13
2023-12-10T22:18:03.097Z,10.48
2023-12-10T22:20:27.153Z,11.80
2023-12-10T22:22:51.330Z,18.40
2023-12-10T22:25:16.689Z,18.88
2023-12-10T22:27:40.736Z,12.48
2023-12-10T22:30:04.839Z,13.75
2023-12-10T22:32:28.746Z,17.58
2023-12-10T22:34:52.549Z,13.40
2023-12-10T22:37:16.514Z,17.02
2023-12-10T22:39:40.457Z,15.45
2023-12-10T22:42:06.325Z,13.30
2023-12-10T22:44:30.116Z,11.63
2023-12-10T22:46:53.943Z,25.17
2023-12-10T22:49:17.776Z,11.93
2023-12-10T22:51:41.703Z,19.58
2023-12-10T22:54:05.666Z,15.13
2023-12-10T22:56:29.475Z,13.63
2023-12-10T22:58:54.590Z,14.38
2023-12-10T23:01:21.257Z,15.43
2023-12-10T23:03:45.381Z,19.33
2023-12-10T23:06:09.755Z,12.00
2023-12-10T23:08:33.692Z,14.23
2023-12-10T23:10:57.894Z,14.90
2023-12-10T23:13:22.033Z,12.32
2023-12-10T23:15:48.847Z,15.00
2023-12-10T23:18:13.188Z,13.45
2023-12-10T23:20:37.369Z,19.05
2023-12-10T23:23:01.349Z,15.85
2023-12-10T23:25:25.612Z,14.32
2023-12-10T23:27:49.715Z,7.03
2023-12-10T23:30:14.271Z,15.88
2023-12-10T23:32:39.642Z,14.80
2023-12-10T23:35:03.711Z,14.23
2023-12-10T23:37:27.691Z,14.27
2023-12-10T23:39:51.814Z,12.85
2023-12-10T23:42:15.629Z,14.25
2023-12-10T23:44:39.401Z,10.55
2023-12-10T23:47:03.157Z,13.98
2023-12-10T23:49:28.366Z,18.33
2023-12-10T23:51:52.170Z,15.50
2023-12-10T23:54:15.960Z,9.77
2023-12-10T23:56:39.668Z,14.15
2023-12-10T23:59:03.852Z,10.63
